createdAt,value
2019-02-09T00:02:07.998Z,36.83
2019-02-09T00:04:38.407Z,39.20
2019-02-09T00:07:08.775Z,39.20
2019-02-09T00:09:39.123Z,38.53
2019-02-09T00:12:09.459Z,37.53
2019-02-09T00:14:39.839Z,34.97
2019-02-09T00:17:10.178Z,35.57
2019-02-09T00:19:40.543Z,38.70
2019-02-09T00:22:11.956Z,35.80
2019-02-09T00:24:42.371Z,34.23
2019-02-09T00:27:12.703Z,40.83
2019-02-09T00:29:46.459Z,35.67
2019-02-09T00:32:15.071Z,41.03
2019-02-09T00:34:45.443Z,33.17
2019-02-09T00:37:15.791Z,35.20
2019-02-09T00:39:46.161Z,33.10
2019-02-09T00:42:16.495Z,33.87
2019-02-09T00:44:46.875Z,41.13
2019-02-09T00:47:17.227Z,33.97
2019-02-09T00:49:47.580Z,32.33
2019-02-09T00:52:18.045Z,29.00
2019-02-09T00:54:48.451Z,34.10
2019-02-09T00:57:18.827Z,32.30
2019-02-09T00:59:53.957Z,38.63
2019-02-09T01:02:21.248Z,27.07
2019-02-09T01:04:51.696Z,31.23
2019-02-09T01:07:22.083Z,31.30
2019-02-09T01:09:53.500Z,28.87
2019-02-09T01:12:23.835Z,31.97
2019-02-09T01:14:54.217Z,28.17
2019-02-09T01:17:23.903Z,29.13
2019-02-09T01:19:54.164Z,31.00
2019-02-09T01:22:24.495Z,35.63
2019-02-09T01:24:54.843Z,34.03
2019-02-09T01:27:24.806Z,29.80
2019-02-09T01:30:02.279Z,28.70
2019-02-09T01:32:27.195Z,32.00
2019-02-09T01:34:57.567Z,29.50
2019-02-09T01:37:27.911Z,37.97
2019-02-09T01:39:58.294Z,36.60
2019-02-09T01:42:28.051Z,35.53
2019-02-09T01:44:58.296Z,37.53
2019-02-09T01:47:28.668Z,32.10
2019-02-09T01:49:59.080Z,33.03
2019-02-09T01:52:29.443Z,33.27
2019-02-09T01:54:59.777Z,36.00
2019-02-09T01:57:30.148Z,34.03
2019-02-09T02:00:00.594Z,38.00
2019-02-09T02:02:31.043Z,40.97
2019-02-09T02:05:01.420Z,34.70
2019-02-09T02:07:31.845Z,33.27
2019-02-09T02:10:02.220Z,37.27
2019-02-09T02:12:32.625Z,31.17
2019-02-09T02:15:05.920Z,35.93
2019-02-09T02:17:36.282Z,33.40
2019-02-09T02:20:08.436Z,31.73
2019-02-09T02:22:38.771Z,33.67
2019-02-09T02:25:09.324Z,35.60
2019-02-09T02:27:40.067Z,34.00
2019-02-09T02:30:22.097Z,31.47
2019-02-09T02:32:46.011Z,39.33
2019-02-09T02:35:16.415Z,37.40
2019-02-09T02:37:46.755Z,37.00
2019-02-09T02:40:18.441Z,31.80
2019-02-09T02:42:48.972Z,33.10
2019-02-09T02:45:19.788Z,33.63
2019-02-09T02:47:50.518Z,33.97
2019-02-09T02:50:21.248Z,33.20
2019-02-09T02:52:51.619Z,38.60
2019-02-09T02:55:24.679Z,36.90
2019-02-09T02:57:56.083Z,29.30
2019-02-09T03:00:32.169Z,30.97
2019-02-09T03:03:00.590Z,31.30
2019-02-09T03:05:31.113Z,29.23
2019-02-09T03:08:01.582Z,29.37
2019-02-09T03:10:31.987Z,31.40
2019-02-09T03:13:02.335Z,37.30
2019-02-09T03:15:32.736Z,32.17
2019-02-09T03:18:03.261Z,36.07
2019-02-09T03:20:33.707Z,31.10
2019-02-09T03:23:05.574Z,30.73
2019-02-09T03:25:36.198Z,32.77
2019-02-09T03:28:06.533Z,31.97
2019-02-09T03:30:47.210Z,27.50
2019-02-09T03:33:09.412Z,32.80
2019-02-09T03:35:39.855Z,33.73
2019-02-09T03:38:10.199Z,30.17
2019-02-09T03:40:40.571Z,29.47
2019-02-09T03:43:10.913Z,33.70
2019-02-09T03:45:41.323Z,37.50
2019-02-09T03:48:11.687Z,35.73
2019-02-09T03:50:43.099Z,32.73
2019-02-09T03:53:13.435Z,28.27
2019-02-09T03:55:43.776Z,34.37
2019-02-09T03:58:14.163Z,33.20
2019-02-09T04:00:44.523Z,26.97
2019-02-09T04:03:14.872Z,29.80
2019-02-09T04:05:45.293Z,33.87
2019-02-09T04:08:15.706Z,28.53
2019-02-09T04:10:46.072Z,28.17
2019-02-09T04:13:15.754Z,30.60
2019-02-09T04:15:46.032Z,28.57
2019-02-09T04:18:15.785Z,30.93
2019-02-09T04:20:46.104Z,31.87
2019-02-09T04:23:15.826Z,29.57
2019-02-09T04:25:46.080Z,30.30
2019-02-09T04:28:15.879Z,28.87
2019-02-09T04:30:46.132Z,32.53
2019-02-09T04:33:15.933Z,26.87
2019-02-09T04:35:46.252Z,29.13
2019-02-09T04:38:15.949Z,27.07
2019-02-09T04:40:46.304Z,26.03
2019-02-09T04:43:15.996Z,24.90
2019-02-09T04:45:46.366Z,33.77
2019-02-09T04:48:16.128Z,29.70
2019-02-09T04:50:46.403Z,25.10
2019-02-09T04:53:16.167Z,24.73
2019-02-09T04:55:46.427Z,29.03
2019-02-09T04:58:16.421Z,32.80
2019-02-09T05:00:46.667Z,28.77
2019-02-09T05:03:16.359Z,28.07
2019-02-09T05:05:46.843Z,26.43
2019-02-09T05:08:16.540Z,27.40
2019-02-09T05:10:46.781Z,27.57
2019-02-09T05:13:16.475Z,26.27
2019-02-09T05:15:46.719Z,24.70
2019-02-09T05:18:17.154Z,23.80
2019-02-09T05:20:47.569Z,28.73
2019-02-09T05:23:17.368Z,27.57
2019-02-09T05:25:47.616Z,22.53
2019-02-09T05:28:17.304Z,23.60
2019-02-09T05:30:47.563Z,23.43
2019-02-09T05:33:17.254Z,27.93
2019-02-09T05:35:47.543Z,17.30
2019-02-09T05:38:17.243Z,21.43
2019-02-09T05:40:47.531Z,24.23
2019-02-09T05:43:17.898Z,24.97
2019-02-09T05:45:48.309Z,26.13
2019-02-09T05:48:18.111Z,24.77
2019-02-09T05:50:48.396Z,26.17
2019-02-09T05:53:18.083Z,23.17
2019-02-09T05:55:48.347Z,24.23
2019-02-09T05:58:18.115Z,22.47
2019-02-09T06:00:48.411Z,24.90
2019-02-09T06:03:18.111Z,23.10
2019-02-09T06:05:48.403Z,21.27
2019-02-09T06:08:18.174Z,21.67
2019-02-09T06:10:48.487Z,20.80
2019-02-09T06:13:18.187Z,28.20
2019-02-09T06:15:48.628Z,21.57
2019-02-09T06:18:18.431Z,25.87
2019-02-09T06:20:48.709Z,22.77
2019-02-09T06:23:18.539Z,22.80
2019-02-09T06:25:48.854Z,24.53
2019-02-09T06:28:18.653Z,24.40
2019-02-09T06:30:48.892Z,25.87
2019-02-09T06:33:20.303Z,25.53
2019-02-09T06:35:50.703Z,26.07
2019-02-09T06:38:21.160Z,19.97
2019-02-09T06:40:51.565Z,22.50
2019-02-09T06:43:22.043Z,27.80
2019-02-09T06:45:52.408Z,25.80
2019-02-09T06:48:30.648Z,27.40
2019-02-09T06:51:02.214Z,26.07
2019-02-09T06:53:32.651Z,21.67
2019-02-09T06:56:03.084Z,24.43
2019-02-09T06:58:34.655Z,23.20
2019-02-09T07:01:06.284Z,25.80
2019-02-09T07:03:36.791Z,24.37
2019-02-09T07:06:07.250Z,25.00
2019-02-09T07:08:37.795Z,23.23
2019-02-09T07:11:08.226Z,24.60
2019-02-09T07:13:38.846Z,22.67
2019-02-09T07:16:09.267Z,26.83
2019-02-09T07:18:39.827Z,22.33
2019-02-09T07:21:10.185Z,25.30
2019-02-09T07:23:40.712Z,22.23
2019-02-09T07:26:11.116Z,23.47
2019-02-09T07:28:41.726Z,25.37
2019-02-09T07:31:12.128Z,22.63
2019-02-09T07:33:43.031Z,25.63
2019-02-09T07:36:13.412Z,28.20
2019-02-09T07:38:43.743Z,27.73
2019-02-09T07:41:14.599Z,24.33
2019-02-09T07:43:45.248Z,25.67
2019-02-09T07:46:16.022Z,24.20
2019-02-09T07:48:46.355Z,35.83
2019-02-09T07:51:16.702Z,31.57
2019-02-09T07:53:47.067Z,29.30
2019-02-09T07:56:17.419Z,33.30
2019-02-09T07:58:47.776Z,23.67
2019-02-09T08:01:19.795Z,30.30
2019-02-09T08:03:50.147Z,25.17
2019-02-09T08:06:21.655Z,27.83
2019-02-09T08:08:52.026Z,28.50
2019-02-09T08:11:24.899Z,26.70
2019-02-09T08:13:56.203Z,27.87
2019-02-09T08:16:27.468Z,24.87
2019-02-09T08:18:57.979Z,22.83
2019-02-09T08:21:28.311Z,31.10
2019-02-09T08:23:58.680Z,33.70
2019-02-09T08:26:32.607Z,23.90
2019-02-09T08:29:03.011Z,23.97
2019-02-09T08:31:41.082Z,26.07
2019-02-09T08:34:11.632Z,27.83
2019-02-09T08:36:42.511Z,23.53
2019-02-09T08:39:12.851Z,27.27
2019-02-09T08:41:43.408Z,21.37
2019-02-09T08:44:14.195Z,29.27
2019-02-09T08:46:44.647Z,17.40
2019-02-09T08:49:15.197Z,21.10
2019-02-09T08:51:45.539Z,23.73
2019-02-09T08:54:15.223Z,20.60
2019-02-09T08:56:45.627Z,23.40
2019-02-09T08:59:16.562Z,19.43
2019-02-09T09:01:47.119Z,20.13
2019-02-09T09:04:18.095Z,22.87
2019-02-09T09:06:48.570Z,30.00
2019-02-09T09:09:19.308Z,23.23
2019-02-09T09:11:49.791Z,22.57
2019-02-09T09:14:20.359Z,25.30
2019-02-09T09:16:50.876Z,18.53
2019-02-09T09:19:21.243Z,21.43
2019-02-09T09:21:50.943Z,19.03
2019-02-09T09:24:21.194Z,24.30
2019-02-09T09:26:51.609Z,23.23
2019-02-09T09:29:24.231Z,21.87
2019-02-09T09:31:56.540Z,23.37
2019-02-09T09:34:26.785Z,24.73
2019-02-09T09:36:58.212Z,24.93
2019-02-09T09:39:28.553Z,21.60
2019-02-09T09:41:58.885Z,22.00
2019-02-09T09:44:29.255Z,21.80
2019-02-09T09:47:00.659Z,20.63
2019-02-09T09:49:31.039Z,28.37
2019-02-09T09:52:01.407Z,44.47
2019-02-09T09:54:31.751Z,42.70
2019-02-09T09:57:04.447Z,62.20
2019-02-09T09:59:34.779Z,55.73
2019-02-09T10:02:05.838Z,46.80
2019-02-09T10:04:36.247Z,49.30
2019-02-09T10:07:06.636Z,55.43
2019-02-09T10:09:36.979Z,33.13
2019-02-09T10:12:06.703Z,31.27
2019-02-09T10:14:36.968Z,38.97
2019-02-09T10:18:51.531Z,33.10
2019-02-09T10:21:21.883Z,53.77
2019-02-09T10:23:51.603Z,43.77
2019-02-09T10:26:21.192Z,33.77
2019-02-09T10:28:51.480Z,29.67
2019-02-09T10:31:21.847Z,32.10
2019-02-09T10:33:51.547Z,30.53
2019-02-09T10:36:21.159Z,39.27
2019-02-09T10:38:51.448Z,26.80
2019-02-09T10:41:21.796Z,23.67
2019-02-09T10:43:51.514Z,31.07
2019-02-09T10:46:21.115Z,31.53
2019-02-09T10:48:52.109Z,23.40
2019-02-09T10:51:22.710Z,23.10
2019-02-09T10:53:52.468Z,29.47
2019-02-09T10:56:22.075Z,21.77
2019-02-09T10:58:52.471Z,22.57
2019-02-09T11:01:23.880Z,21.03
2019-02-09T11:03:53.568Z,29.57
2019-02-09T11:06:23.174Z,22.17
2019-02-09T11:08:53.915Z,21.37
2019-02-09T11:11:23.795Z,19.47
2019-02-09T11:13:53.461Z,18.60
2019-02-09T11:16:23.123Z,17.10
2019-02-09T11:18:54.624Z,21.93
2019-02-09T11:21:24.951Z,17.03
2019-02-09T11:23:54.686Z,19.20
2019-02-09T11:26:24.927Z,16.00
2019-02-09T11:28:56.839Z,13.47
2019-02-09T11:31:27.211Z,13.80
2019-02-09T11:33:57.628Z,20.20
2019-02-09T11:36:27.972Z,12.23
2019-02-09T11:38:58.364Z,14.73
2019-02-09T11:41:28.816Z,10.53
2019-02-09T11:43:59.164Z,13.03
2019-02-09T11:46:29.323Z,11.23
2019-02-09T11:48:59.615Z,9.43
2019-02-09T11:51:29.371Z,14.63
2019-02-09T11:53:59.627Z,10.37
2019-02-09T11:56:29.339Z,10.07
2019-02-09T11:58:59.591Z,10.70
2019-02-09T12:01:29.286Z,10.13
2019-02-09T12:03:59.959Z,10.33
2019-02-09T12:06:29.651Z,9.03
2019-02-09T12:08:59.891Z,11.73
2019-02-09T12:11:29.591Z,10.63
2019-02-09T12:13:59.829Z,13.47
2019-02-09T12:16:29.868Z,8.27
2019-02-09T12:19:00.117Z,8.17
2019-02-09T12:21:29.806Z,7.77
2019-02-09T12:24:00.108Z,8.73
2019-02-09T12:26:29.824Z,8.40
2019-02-09T12:29:00.091Z,5.53
2019-02-09T12:31:30.802Z,8.00
2019-02-09T12:34:01.343Z,7.30
2019-02-09T12:36:32.311Z,9.43
2019-02-09T12:39:03.423Z,8.97
2019-02-09T12:41:34.659Z,8.60
2019-02-09T12:44:06.506Z,7.23
2019-02-09T12:46:52.016Z,7.90
2019-02-09T12:49:22.364Z,8.97
2019-02-09T12:51:52.151Z,10.50
2019-02-09T12:54:22.867Z,9.00
2019-02-09T12:56:53.283Z,9.10
2019-02-09T12:59:23.719Z,9.03
2019-02-09T13:01:54.163Z,11.57
2019-02-09T13:04:24.543Z,6.97
2019-02-09T13:06:54.343Z,9.67
2019-02-09T13:09:24.600Z,6.97
2019-02-09T13:11:54.392Z,10.97
2019-02-09T13:14:24.644Z,8.03
2019-02-09T13:16:54.339Z,10.13
2019-02-09T13:19:24.633Z,11.27
2019-02-09T13:24:43.020Z,7.70
2019-02-09T13:27:13.425Z,6.10
2019-02-09T13:29:43.755Z,11.40
2019-02-09T13:32:14.131Z,9.83
2019-02-09T13:34:44.467Z,10.27
2019-02-09T13:37:14.884Z,15.67
2019-02-09T13:39:52.296Z,7.70
2019-02-09T13:42:26.021Z,5.77
2019-02-09T13:44:55.699Z,11.53
2019-02-09T13:47:25.979Z,11.83
2019-02-09T13:49:55.692Z,12.07
2019-02-09T13:52:26.163Z,10.43
2019-02-09T13:54:56.506Z,11.77
2019-02-09T13:57:26.860Z,11.83
2019-02-09T13:59:57.226Z,9.80
2019-02-09T14:02:27.656Z,9.67
2019-02-09T14:04:59.407Z,8.50
2019-02-09T14:07:29.759Z,8.27
2019-02-09T14:10:00.277Z,9.70
2019-02-09T14:13:04.303Z,10.33
2019-02-09T14:15:32.921Z,10.63
2019-02-09T14:18:10.387Z,11.67
2019-02-09T14:20:54.527Z,9.07
2019-02-09T14:23:46.976Z,9.97
2019-02-09T14:26:18.431Z,14.20
2019-02-09T14:28:48.822Z,10.73
2019-02-09T14:31:19.377Z,10.90
2019-02-09T14:33:55.127Z,10.53
2019-02-09T14:36:24.507Z,7.27
2019-02-09T14:38:54.278Z,8.10
2019-02-09T14:41:25.313Z,9.93
2019-02-09T14:43:55.108Z,8.93
2019-02-09T14:46:25.359Z,10.57
2019-02-09T14:48:55.707Z,13.47
2019-02-09T14:51:25.399Z,15.93
2019-02-09T14:53:55.109Z,16.67
2019-02-09T14:56:25.371Z,16.70
2019-02-09T14:58:55.812Z,8.03
2019-02-09T15:01:26.480Z,9.17
2019-02-09T15:04:02.627Z,21.53
2019-02-09T15:06:28.944Z,26.40
2019-02-09T15:08:59.282Z,12.23
2019-02-09T15:11:29.643Z,13.40
2019-02-09T15:14:00.291Z,16.07
2019-02-09T15:16:43.409Z,8.20
2019-02-09T15:19:14.750Z,9.70
2019-02-09T15:21:45.466Z,12.13
2019-02-09T15:24:16.296Z,8.80
2019-02-09T15:26:47.783Z,7.43
2019-02-09T15:29:18.835Z,7.90
2019-02-09T15:31:49.495Z,7.90
2019-02-09T15:34:20.000Z,9.90
2019-02-09T15:36:50.406Z,12.90
2019-02-09T15:39:21.650Z,9.60
2019-02-09T15:41:53.178Z,9.20
2019-02-09T15:44:25.895Z,10.63
2019-02-09T15:47:02.327Z,8.80
2019-02-09T15:49:33.267Z,14.83
2019-02-09T15:52:03.618Z,12.00
2019-02-09T15:54:34.060Z,11.27
2019-02-09T15:57:10.704Z,7.60
2019-02-09T15:59:41.051Z,14.17
2019-02-09T16:02:11.423Z,29.37
2019-02-09T16:04:43.047Z,30.90
2019-02-09T16:07:12.775Z,18.90
2019-02-09T16:09:43.468Z,12.67
2019-02-09T16:12:15.671Z,8.90
2019-02-09T16:14:45.658Z,13.50
2019-02-09T16:17:18.672Z,10.53
2019-02-09T16:19:49.275Z,10.37
2019-02-09T16:22:19.011Z,14.40
2019-02-09T16:24:49.710Z,9.07
2019-02-09T16:27:23.296Z,10.97
2019-02-09T16:29:53.755Z,10.63
2019-02-09T16:32:41.265Z,16.47
2019-02-09T16:35:13.172Z,28.40
2019-02-09T16:37:45.132Z,16.90
2019-02-09T16:40:21.567Z,11.27
2019-02-09T16:42:53.949Z,11.03
2019-02-09T16:45:30.068Z,18.23
2019-02-09T16:48:31.617Z,12.37
2019-02-09T16:51:02.104Z,28.27
2019-02-09T16:53:35.274Z,20.67
2019-02-09T16:56:07.977Z,60.40
2019-02-09T16:58:41.556Z,12.40
2019-02-09T17:01:12.246Z,14.83
2019-02-09T17:03:43.504Z,10.37
2019-02-09T17:06:13.885Z,15.67
2019-02-09T17:08:44.333Z,13.17
2019-02-09T17:11:14.783Z,14.63
2019-02-09T17:13:45.440Z,22.80
2019-02-09T17:16:15.819Z,13.67
2019-02-09T17:18:46.160Z,11.23
2019-02-09T17:21:16.980Z,8.13
2019-02-09T17:23:46.772Z,10.87
2019-02-09T17:26:17.025Z,7.13
2019-02-09T17:28:46.724Z,7.10
2019-02-09T17:31:17.436Z,8.40
2019-02-09T17:33:47.252Z,10.10
2019-02-09T17:36:17.644Z,7.13
2019-02-09T17:38:47.400Z,7.63
2019-02-09T17:41:17.761Z,7.93
2019-02-09T17:43:47.468Z,9.10
2019-02-09T17:46:18.460Z,7.70
2019-02-09T17:48:48.823Z,10.73
2019-02-09T17:51:21.517Z,8.70
2019-02-09T17:53:51.279Z,11.27
2019-02-09T17:56:21.588Z,13.47
2019-02-09T17:58:51.311Z,9.83
2019-02-09T18:01:22.289Z,8.23
2019-02-09T18:03:53.120Z,7.83
2019-02-09T18:06:23.515Z,7.90
2019-02-09T18:08:55.263Z,7.93
2019-02-09T18:11:25.814Z,7.93
2019-02-09T18:13:58.056Z,7.77
2019-02-09T18:16:28.400Z,10.70
2019-02-09T18:18:58.896Z,5.00
2019-02-09T18:21:29.628Z,9.60
2019-02-09T18:24:03.064Z,7.40
2019-02-09T18:26:34.765Z,8.83
2019-02-09T18:29:05.400Z,8.87
2019-02-09T18:31:38.177Z,9.80
2019-02-09T18:34:10.260Z,16.53
2019-02-09T18:36:46.592Z,12.53
2019-02-09T18:39:20.244Z,22.37
2019-02-09T18:41:51.136Z,84.30
2019-02-09T18:44:33.770Z,10.13
2019-02-09T18:47:05.833Z,6.80
2019-02-09T18:49:40.072Z,8.63
2019-02-09T18:52:12.296Z,10.70
2019-02-09T18:54:42.822Z,10.20
2019-02-09T18:57:14.988Z,9.87
2019-02-09T19:02:38.513Z,10.70
2019-02-09T19:05:10.780Z,9.60
2019-02-09T19:07:41.404Z,7.47
2019-02-09T19:10:20.144Z,10.63
2019-02-09T19:12:50.659Z,7.70
2019-02-09T19:15:21.923Z,7.30
2019-02-09T19:17:52.336Z,7.57
2019-02-09T19:20:30.672Z,9.13
2019-02-09T19:23:01.808Z,12.03
2019-02-09T19:25:33.807Z,9.03
2019-02-09T19:28:04.841Z,11.17
2019-02-09T19:30:37.409Z,11.50
2019-02-09T19:33:07.906Z,6.13
2019-02-09T19:35:40.291Z,19.93
2019-02-09T19:38:10.659Z,9.90
2019-02-09T19:40:41.195Z,9.17
2019-02-09T19:43:12.123Z,7.70
2019-02-09T19:45:44.548Z,13.87
2019-02-09T19:48:14.857Z,12.47
2019-02-09T19:50:45.376Z,10.27
2019-02-09T19:53:15.766Z,10.63
2019-02-09T19:55:46.596Z,9.23
2019-02-09T19:58:16.996Z,17.43
2019-02-09T20:00:47.483Z,11.23
2019-02-09T20:03:17.818Z,16.40
2019-02-09T20:05:48.184Z,11.67
2019-02-09T20:08:18.550Z,9.27
2019-02-09T20:10:49.221Z,9.20
2019-02-09T20:13:19.668Z,10.77
2019-02-09T20:15:50.095Z,10.87
2019-02-09T20:18:20.435Z,33.47
2019-02-09T20:20:50.883Z,11.83
2019-02-09T20:23:21.219Z,12.63
2019-02-09T20:25:51.596Z,12.30
2019-02-09T20:28:21.327Z,26.93
2019-02-09T20:30:51.575Z,12.00
2019-02-09T20:33:22.338Z,20.40
2019-02-09T20:35:52.130Z,10.97
2019-02-09T20:38:22.407Z,10.47
2019-02-09T20:40:59.050Z,10.57
2019-02-09T20:43:29.431Z,16.07
2019-02-09T20:45:59.772Z,16.07
2019-02-09T20:48:30.152Z,10.77
2019-02-09T20:51:00.577Z,12.37
2019-02-09T20:53:30.979Z,12.37
2019-02-09T20:56:01.315Z,12.20
2019-02-09T20:58:32.883Z,9.97
2019-02-09T21:01:02.689Z,11.00
2019-02-09T21:03:32.973Z,8.43
2019-02-09T21:06:03.319Z,22.47
2019-02-09T21:08:33.041Z,12.00
2019-02-09T21:11:03.715Z,11.20
2019-02-09T21:13:34.087Z,11.17
2019-02-09T21:16:04.537Z,9.77
2019-02-09T21:18:34.899Z,10.70
2019-02-09T21:21:05.219Z,11.53
2019-02-09T21:23:35.591Z,11.27
2019-02-09T21:26:05.935Z,7.60
2019-02-09T21:28:36.405Z,7.53
2019-02-09T21:31:06.888Z,13.80
2019-02-09T21:33:38.364Z,10.73
2019-02-09T21:36:08.782Z,13.30
2019-02-09T21:38:40.187Z,13.40
2019-02-09T21:41:10.539Z,12.13
2019-02-09T21:43:40.904Z,9.93
2019-02-09T21:46:11.258Z,9.40
2019-02-09T21:48:41.655Z,9.07
2019-02-09T21:51:12.024Z,10.03
2019-02-09T21:53:42.355Z,9.50
2019-02-09T21:56:12.703Z,7.73
2019-02-09T21:58:43.031Z,8.33
2019-02-09T22:01:13.375Z,10.53
2019-02-09T22:03:43.711Z,9.20
2019-02-09T22:06:15.300Z,9.97
2019-02-09T22:08:45.643Z,10.80
2019-02-09T22:11:27.702Z,7.80
2019-02-09T22:13:58.124Z,12.60
2019-02-09T22:16:28.892Z,14.27
2019-02-09T22:18:59.729Z,25.80
2019-02-09T22:21:30.347Z,62.37
2019-02-09T22:24:00.863Z,59.90
2019-02-09T22:26:31.315Z,13.10
2019-02-09T22:29:01.704Z,14.10
2019-02-09T22:31:32.533Z,11.77
2019-02-09T22:34:05.636Z,10.07
2019-02-09T22:36:37.122Z,13.73
2019-02-09T22:39:09.240Z,16.97
2019-02-09T22:41:39.593Z,10.17
2019-02-09T22:44:11.265Z,9.63
2019-02-09T22:46:41.673Z,8.13
2019-02-09T22:49:12.159Z,14.57
2019-02-09T22:51:42.671Z,12.80
2019-02-09T22:54:12.376Z,10.17
2019-02-09T22:56:42.645Z,9.37
2019-02-09T22:59:13.019Z,9.43
2019-02-09T23:01:50.802Z,7.67
2019-02-09T23:04:58.109Z,8.93
2019-02-09T23:07:30.910Z,8.73
2019-02-09T23:10:02.717Z,11.17
2019-02-09T23:12:32.416Z,5.53
2019-02-09T23:15:02.712Z,6.97
2019-02-09T23:17:33.147Z,10.43
2019-02-09T23:20:05.804Z,6.27
2019-02-09T23:22:36.184Z,8.43
2019-02-09T23:25:07.448Z,6.37
2019-02-09T23:27:38.825Z,8.33
2019-02-09T23:30:14.356Z,8.83
2019-02-09T23:32:44.712Z,7.17
2019-02-09T23:35:15.168Z,10.63
2019-02-09T23:37:45.820Z,7.50
2019-02-09T23:40:16.511Z,6.17
2019-02-09T23:42:46.944Z,7.27
2019-02-09T23:45:20.764Z,8.93
2019-02-09T23:48:05.291Z,10.23
2019-02-09T23:50:35.772Z,5.17
2019-02-09T23:53:06.124Z,5.83
2019-02-09T23:55:36.504Z,7.40
2019-02-09T23:58:07.215Z,9.17
